sensor_id;sensor_type;location;lat;lon;timestamp;P1;durP1;ratioP1;P2;durP2;ratioP2
66800;SDS011;53703;50.326;19.122;2023-07-24T00:02:06;7.30;;;3.30;;
66800;SDS011;53703;50.326;19.122;2023-07-24T00:04:39;5.90;;;3.20;;
66800;SDS011;53703;50.326;19.122;2023-07-24T00:07:12;6.20;;;3.10;;
66800;SDS011;53703;50.326;19.122;2023-07-24T00:09:46;7.20;;;3.20;;
66800;SDS011;53703;50.326;19.122;2023-07-24T00:12:19;8.20;;;3.20;;
66800;SDS011;53703;50.326;19.122;2023-07-24T00:14:54;7.30;;;3.00;;
66800;SDS011;53703;50.326;19.122;2023-07-24T00:17:27;6.70;;;3.30;;
66800;SDS011;53703;50.326;19.122;2023-07-24T00:20:00;5.80;;;3.10;;
66800;SDS011;53703;50.326;19.122;2023-07-24T00:22:34;8.00;;;3.40;;
66800;SDS011;53703;50.326;19.122;2023-07-24T00:25:08;5.70;;;3.20;;
66800;SDS011;53703;50.326;19.122;2023-07-24T00:27:41;5.00;;;2.90;;
66800;SDS011;53703;50.326;19.122;2023-07-24T00:30:15;7.50;;;3.10;;
66800;SDS011;53703;50.326;19.122;2023-07-24T00:32:48;7.50;;;3.20;;
66800;SDS011;53703;50.326;19.122;2023-07-24T00:35:22;5.90;;;3.00;;
66800;SDS011;53703;50.326;19.122;2023-07-24T00:37:55;7.20;;;3.40;;
66800;SDS011;53703;50.326;19.122;2023-07-24T00:40:28;7.30;;;3.40;;
66800;SDS011;53703;50.326;19.122;2023-07-24T00:43:01;7.40;;;3.50;;
66800;SDS011;53703;50.326;19.122;2023-07-24T00:45:35;6.40;;;3.40;;
66800;SDS011;53703;50.326;19.122;2023-07-24T00:48:08;7.10;;;3.40;;
66800;SDS011;53703;50.326;19.122;2023-07-24T00:50:42;6.90;;;3.50;;
66800;SDS011;53703;50.326;19.122;2023-07-24T00:53:16;6.10;;;3.50;;
66800;SDS011;53703;50.326;19.122;2023-07-24T00:55:51;6.40;;;3.50;;
66800;SDS011;53703;50.326;19.122;2023-07-24T00:58:24;7.00;;;3.60;;
66800;SDS011;53703;50.326;19.122;2023-07-24T01:00:58;7.80;;;3.50;;
66800;SDS011;53703;50.326;19.122;2023-07-24T01:03:33;6.40;;;3.30;;
66800;SDS011;53703;50.326;19.122;2023-07-24T01:06:08;5.60;;;3.30;;
66800;SDS011;53703;50.326;19.122;2023-07-24T01:08:41;8.80;;;3.60;;
66800;SDS011;53703;50.326;19.122;2023-07-24T01:11:18;7.50;;;3.60;;
66800;SDS011;53703;50.326;19.122;2023-07-24T01:14:02;6.50;;;3.60;;
66800;SDS011;53703;50.326;19.122;2023-07-24T01:16:42;6.70;;;3.50;;
66800;SDS011;53703;50.326;19.122;2023-07-24T01:19:25;6.80;;;3.70;;
66800;SDS011;53703;50.326;19.122;2023-07-24T01:22:14;6.60;;;3.40;;
66800;SDS011;53703;50.326;19.122;2023-07-24T01:25:05;5.30;;;3.50;;
66800;SDS011;53703;50.326;19.122;2023-07-24T01:27:49;6.60;;;3.50;;
66800;SDS011;53703;50.326;19.122;2023-07-24T01:30:23;6.30;;;3.60;;
66800;SDS011;53703;50.326;19.122;2023-07-24T01:32:56;8.30;;;3.60;;
66800;SDS011;53703;50.326;19.122;2023-07-24T01:35:29;8.20;;;3.50;;
66800;SDS011;53703;50.326;19.122;2023-07-24T01:38:04;7.60;;;3.60;;
66800;SDS011;53703;50.326;19.122;2023-07-24T01:40:38;5.60;;;3.00;;
66800;SDS011;53703;50.326;19.122;2023-07-24T01:43:11;6.20;;;3.40;;
66800;SDS011;53703;50.326;19.122;2023-07-24T01:45:45;8.60;;;3.80;;
66800;SDS011;53703;50.326;19.122;2023-07-24T01:48:18;7.30;;;3.60;;
66800;SDS011;53703;50.326;19.122;2023-07-24T01:50:51;8.20;;;3.90;;
66800;SDS011;53703;50.326;19.122;2023-07-24T01:53:25;5.90;;;3.60;;
66800;SDS011;53703;50.326;19.122;2023-07-24T01:55:59;6.60;;;3.70;;
66800;SDS011;53703;50.326;19.122;2023-07-24T01:58:32;6.40;;;3.60;;
66800;SDS011;53703;50.326;19.122;2023-07-24T02:01:05;7.30;;;3.60;;
66800;SDS011;53703;50.326;19.122;2023-07-24T02:03:38;9.40;;;3.70;;
66800;SDS011;53703;50.326;19.122;2023-07-24T02:06:12;7.80;;;3.80;;
66800;SDS011;53703;50.326;19.122;2023-07-24T02:08:45;5.80;;;3.50;;
66800;SDS011;53703;50.326;19.122;2023-07-24T02:11:19;7.30;;;3.40;;
66800;SDS011;53703;50.326;19.122;2023-07-24T02:13:52;6.30;;;3.60;;
66800;SDS011;53703;50.326;19.122;2023-07-24T02:16:26;7.40;;;3.70;;
66800;SDS011;53703;50.326;19.122;2023-07-24T02:18:59;6.30;;;3.60;;
66800;SDS011;53703;50.326;19.122;2023-07-24T02:21:33;6.80;;;3.80;;
66800;SDS011;53703;50.326;19.122;2023-07-24T02:24:06;7.00;;;3.20;;
66800;SDS011;53703;50.326;19.122;2023-07-24T02:26:40;6.30;;;3.80;;
66800;SDS011;53703;50.326;19.122;2023-07-24T02:29:13;6.90;;;3.30;;
66800;SDS011;53703;50.326;19.122;2023-07-24T02:31:46;6.00;;;3.30;;
66800;SDS011;53703;50.326;19.122;2023-07-24T02:34:19;6.30;;;3.70;;
66800;SDS011;53703;50.326;19.122;2023-07-24T02:36:54;7.90;;;3.70;;
66800;SDS011;53703;50.326;19.122;2023-07-24T02:39:28;8.50;;;3.30;;
66800;SDS011;53703;50.326;19.122;2023-07-24T02:42:01;7.40;;;3.50;;
66800;SDS011;53703;50.326;19.122;2023-07-24T02:44:35;7.10;;;3.90;;
66800;SDS011;53703;50.326;19.122;2023-07-24T02:47:08;7.40;;;4.10;;
66800;SDS011;53703;50.326;19.122;2023-07-24T02:49:42;6.00;;;3.30;;
66800;SDS011;53703;50.326;19.122;2023-07-24T02:52:15;8.10;;;3.40;;
66800;SDS011;53703;50.326;19.122;2023-07-24T02:54:48;8.30;;;3.80;;
66800;SDS011;53703;50.326;19.122;2023-07-24T02:57:22;6.60;;;3.40;;
66800;SDS011;53703;50.326;19.122;2023-07-24T02:59:55;6.10;;;3.30;;
66800;SDS011;53703;50.326;19.122;2023-07-24T03:02:28;6.80;;;3.70;;
66800;SDS011;53703;50.326;19.122;2023-07-24T03:05:02;9.20;;;4.00;;
66800;SDS011;53703;50.326;19.122;2023-07-24T03:07:36;8.40;;;3.50;;
66800;SDS011;53703;50.326;19.122;2023-07-24T03:10:10;7.30;;;3.70;;
66800;SDS011;53703;50.326;19.122;2023-07-24T03:12:43;6.60;;;3.70;;
66800;SDS011;53703;50.326;19.122;2023-07-24T03:15:16;8.80;;;4.30;;
66800;SDS011;53703;50.326;19.122;2023-07-24T03:17:50;7.40;;;3.70;;
66800;SDS011;53703;50.326;19.122;2023-07-24T03:20:23;9.40;;;4.40;;
66800;SDS011;53703;50.326;19.122;2023-07-24T03:22:57;8.40;;;3.50;;
66800;SDS011;53703;50.326;19.122;2023-07-24T03:25:30;8.20;;;3.60;;
66800;SDS011;53703;50.326;19.122;2023-07-24T03:28:06;7.30;;;3.40;;
66800;SDS011;53703;50.326;19.122;2023-07-24T03:30:39;8.70;;;4.30;;
66800;SDS011;53703;50.326;19.122;2023-07-24T03:33:13;8.20;;;4.10;;
66800;SDS011;53703;50.326;19.122;2023-07-24T03:35:46;8.40;;;3.70;;
66800;SDS011;53703;50.326;19.122;2023-07-24T03:38:19;7.50;;;3.70;;
66800;SDS011;53703;50.326;19.122;2023-07-24T03:40:52;9.10;;;4.10;;
66800;SDS011;53703;50.326;19.122;2023-07-24T03:43:26;9.30;;;4.00;;
66800;SDS011;53703;50.326;19.122;2023-07-24T03:45:59;9.90;;;3.90;;
66800;SDS011;53703;50.326;19.122;2023-07-24T03:48:32;7.40;;;3.80;;
66800;SDS011;53703;50.326;19.122;2023-07-24T03:51:07;10.90;;;4.40;;
66800;SDS011;53703;50.326;19.122;2023-07-24T03:53:41;8.90;;;4.20;;
66800;SDS011;53703;50.326;19.122;2023-07-24T03:56:14;7.40;;;4.50;;
66800;SDS011;53703;50.326;19.122;2023-07-24T03:58:48;9.30;;;4.40;;
66800;SDS011;53703;50.326;19.122;2023-07-24T04:01:21;10.00;;;4.40;;
66800;SDS011;53703;50.326;19.122;2023-07-24T04:03:54;10.30;;;4.40;;
66800;SDS011;53703;50.326;19.122;2023-07-24T04:06:28;11.00;;;4.40;;
66800;SDS011;53703;50.326;19.122;2023-07-24T04:09:02;11.10;;;4.80;;
66800;SDS011;53703;50.326;19.122;2023-07-24T04:11:35;8.80;;;4.60;;
66800;SDS011;53703;50.326;19.122;2023-07-24T04:14:09;9.80;;;4.80;;
66800;SDS011;53703;50.326;19.122;2023-07-24T04:16:43;10.90;;;5.00;;
66800;SDS011;53703;50.326;19.122;2023-07-24T04:19:16;10.60;;;5.60;;
66800;SDS011;53703;50.326;19.122;2023-07-24T04:21:49;8.30;;;4.70;;
66800;SDS011;53703;50.326;19.122;2023-07-24T04:24:22;13.00;;;4.70;;
66800;SDS011;53703;50.326;19.122;2023-07-24T04:26:56;10.50;;;5.00;;
66800;SDS011;53703;50.326;19.122;2023-07-24T04:29:29;14.50;;;4.80;;
66800;SDS011;53703;50.326;19.122;2023-07-24T04:32:02;11.40;;;4.50;;
66800;SDS011;53703;50.326;19.122;2023-07-24T04:34:36;8.40;;;4.50;;
66800;SDS011;53703;50.326;19.122;2023-07-24T04:37:10;7.50;;;4.20;;
66800;SDS011;53703;50.326;19.122;2023-07-24T04:39:43;12.30;;;4.80;;
66800;SDS011;53703;50.326;19.122;2023-07-24T04:42:16;10.40;;;4.60;;
66800;SDS011;53703;50.326;19.122;2023-07-24T04:44:50;10.20;;;4.90;;
66800;SDS011;53703;50.326;19.122;2023-07-24T04:47:23;10.10;;;4.20;;
66800;SDS011;53703;50.326;19.122;2023-07-24T04:49:56;8.00;;;4.40;;
66800;SDS011;53703;50.326;19.122;2023-07-24T04:52:30;6.20;;;3.90;;
66800;SDS011;53703;50.326;19.122;2023-07-24T04:55:04;9.30;;;4.00;;
66800;SDS011;53703;50.326;19.122;2023-07-24T04:57:38;9.10;;;4.60;;
66800;SDS011;53703;50.326;19.122;2023-07-24T05:02:46;6.50;;;4.00;;
66800;SDS011;53703;50.326;19.122;2023-07-24T05:05:20;7.50;;;4.20;;
66800;SDS011;53703;50.326;19.122;2023-07-24T05:07:53;8.30;;;3.90;;
66800;SDS011;53703;50.326;19.122;2023-07-24T05:10:26;7.00;;;3.90;;
66800;SDS011;53703;50.326;19.122;2023-07-24T05:13:00;8.10;;;4.20;;
66800;SDS011;53703;50.326;19.122;2023-07-24T05:15:33;9.00;;;4.90;;
66800;SDS011;53703;50.326;19.122;2023-07-24T05:18:06;7.10;;;4.20;;
66800;SDS011;53703;50.326;19.122;2023-07-24T05:20:39;9.30;;;4.30;;
66800;SDS011;53703;50.326;19.122;2023-07-24T05:23:15;6.80;;;4.20;;
66800;SDS011;53703;50.326;19.122;2023-07-24T05:25:55;10.30;;;4.30;;
66800;SDS011;53703;50.326;19.122;2023-07-24T05:28:30;9.90;;;4.80;;
66800;SDS011;53703;50.326;19.122;2023-07-24T05:31:05;6.40;;;3.90;;
66800;SDS011;53703;50.326;19.122;2023-07-24T05:33:38;9.00;;;4.50;;
66800;SDS011;53703;50.326;19.122;2023-07-24T05:36:11;8.20;;;4.60;;
66800;SDS011;53703;50.326;19.122;2023-07-24T05:38:45;8.40;;;4.40;;
66800;SDS011;53703;50.326;19.122;2023-07-24T05:41:18;6.70;;;4.30;;
66800;SDS011;53703;50.326;19.122;2023-07-24T05:43:52;8.20;;;4.20;;
66800;SDS011;53703;50.326;19.122;2023-07-24T05:46:26;6.40;;;4.10;;
66800;SDS011;53703;50.326;19.122;2023-07-24T05:48:59;10.00;;;4.70;;
66800;SDS011;53703;50.326;19.122;2023-07-24T05:51:33;9.50;;;4.30;;
66800;SDS011;53703;50.326;19.122;2023-07-24T05:54:06;8.00;;;4.80;;
66800;SDS011;53703;50.326;19.122;2023-07-24T05:56:39;8.50;;;4.60;;
66800;SDS011;53703;50.326;19.122;2023-07-24T05:59:12;7.70;;;5.00;;
66800;SDS011;53703;50.326;19.122;2023-07-24T06:01:46;9.80;;;4.50;;
66800;SDS011;53703;50.326;19.122;2023-07-24T06:04:19;7.80;;;4.40;;
66800;SDS011;53703;50.326;19.122;2023-07-24T06:06:52;13.80;;;5.60;;
66800;SDS011;53703;50.326;19.122;2023-07-24T06:09:26;10.50;;;4.50;;
66800;SDS011;53703;50.326;19.122;2023-07-24T06:11:59;10.50;;;5.00;;
66800;SDS011;53703;50.326;19.122;2023-07-24T06:14:32;11.40;;;5.20;;
66800;SDS011;53703;50.326;19.122;2023-07-24T06:17:06;12.70;;;5.00;;
66800;SDS011;53703;50.326;19.122;2023-07-24T06:19:39;9.10;;;4.50;;
66800;SDS011;53703;50.326;19.122;2023-07-24T06:22:12;8.70;;;4.60;;
66800;SDS011;53703;50.326;19.122;2023-07-24T06:24:45;8.70;;;4.90;;
66800;SDS011;53703;50.326;19.122;2023-07-24T06:27:19;9.60;;;4.70;;
66800;SDS011;53703;50.326;19.122;2023-07-24T06:29:52;9.10;;;4.80;;
66800;SDS011;53703;50.326;19.122;2023-07-24T06:32:44;8.80;;;4.40;;
66800;SDS011;53703;50.326;19.122;2023-07-24T06:35:17;8.20;;;4.40;;
66800;SDS011;53703;50.326;19.122;2023-07-24T06:37:50;9.60;;;5.00;;
66800;SDS011;53703;50.326;19.122;2023-07-24T06:40:24;8.20;;;4.70;;
66800;SDS011;53703;50.326;19.122;2023-07-24T06:42:58;10.10;;;4.70;;
66800;SDS011;53703;50.326;19.122;2023-07-24T06:45:31;9.90;;;4.40;;
66800;SDS011;53703;50.326;19.122;2023-07-24T06:48:05;10.90;;;4.70;;
66800;SDS011;53703;50.326;19.122;2023-07-24T06:50:38;8.60;;;4.40;;
66800;SDS011;53703;50.326;19.122;2023-07-24T06:53:12;9.80;;;4.40;;
66800;SDS011;53703;50.326;19.122;2023-07-24T06:55:45;9.90;;;4.80;;
66800;SDS011;53703;50.326;19.122;2023-07-24T06:58:18;7.60;;;4.20;;
66800;SDS011;53703;50.326;19.122;2023-07-24T07:00:51;7.80;;;4.30;;
66800;SDS011;53703;50.326;19.122;2023-07-24T07:03:25;10.20;;;4.40;;
66800;SDS011;53703;50.326;19.122;2023-07-24T07:06:01;10.40;;;4.80;;
66800;SDS011;53703;50.326;19.122;2023-07-24T07:08:35;7.40;;;4.60;;
66800;SDS011;53703;50.326;19.122;2023-07-24T07:11:08;9.50;;;4.30;;
66800;SDS011;53703;50.326;19.122;2023-07-24T07:13:41;8.40;;;4.50;;
66800;SDS011;53703;50.326;19.122;2023-07-24T07:16:14;8.00;;;4.30;;
66800;SDS011;53703;50.326;19.122;2023-07-24T07:18:49;7.30;;;4.30;;
66800;SDS011;53703;50.326;19.122;2023-07-24T07:21:22;7.90;;;4.20;;
66800;SDS011;53703;50.326;19.122;2023-07-24T07:23:56;11.10;;;4.70;;
66800;SDS011;53703;50.326;19.122;2023-07-24T07:26:29;11.10;;;4.20;;
66800;SDS011;53703;50.326;19.122;2023-07-24T07:29:03;7.60;;;4.70;;
66800;SDS011;53703;50.326;19.122;2023-07-24T07:31:36;7.70;;;4.30;;
66800;SDS011;53703;50.326;19.122;2023-07-24T07:34:09;6.70;;;4.20;;
66800;SDS011;53703;50.326;19.122;2023-07-24T07:36:42;12.80;;;4.50;;
66800;SDS011;53703;50.326;19.122;2023-07-24T07:39:16;8.60;;;4.40;;
66800;SDS011;53703;50.326;19.122;2023-07-24T07:41:49;9.40;;;4.80;;
66800;SDS011;53703;50.326;19.122;2023-07-24T07:44:41;9.20;;;4.40;;
66800;SDS011;53703;50.326;19.122;2023-07-24T07:47:14;8.30;;;4.40;;
66800;SDS011;53703;50.326;19.122;2023-07-24T07:49:47;9.10;;;4.80;;
66800;SDS011;53703;50.326;19.122;2023-07-24T07:52:21;9.70;;;4.60;;
66800;SDS011;53703;50.326;19.122;2023-07-24T07:54:54;8.90;;;4.10;;
66800;SDS011;53703;50.326;19.122;2023-07-24T07:57:30;8.30;;;4.40;;
66800;SDS011;53703;50.326;19.122;2023-07-24T08:00:04;9.30;;;4.60;;
66800;SDS011;53703;50.326;19.122;2023-07-24T08:02:39;11.90;;;5.00;;
66800;SDS011;53703;50.326;19.122;2023-07-24T08:05:13;9.10;;;4.80;;
66800;SDS011;53703;50.326;19.122;2023-07-24T08:07:51;8.30;;;4.10;;
66800;SDS011;53703;50.326;19.122;2023-07-24T08:10:24;8.50;;;4.10;;
66800;SDS011;53703;50.326;19.122;2023-07-24T08:12:57;8.20;;;4.10;;
66800;SDS011;53703;50.326;19.122;2023-07-24T08:15:30;9.50;;;4.60;;
66800;SDS011;53703;50.326;19.122;2023-07-24T08:18:07;11.60;;;5.30;;
66800;SDS011;53703;50.326;19.122;2023-07-24T08:20:40;11.30;;;4.70;;
66800;SDS011;53703;50.326;19.122;2023-07-24T08:23:13;8.30;;;4.40;;
66800;SDS011;53703;50.326;19.122;2023-07-24T08:25:53;10.10;;;4.60;;
66800;SDS011;53703;50.326;19.122;2023-07-24T08:28:27;9.10;;;4.40;;
66800;SDS011;53703;50.326;19.122;2023-07-24T08:31:00;13.40;;;4.40;;
66800;SDS011;53703;50.326;19.122;2023-07-24T08:33:37;8.90;;;4.20;;
66800;SDS011;53703;50.326;19.122;2023-07-24T08:36:10;8.80;;;4.50;;
66800;SDS011;53703;50.326;19.122;2023-07-24T08:38:43;8.60;;;4.60;;
66800;SDS011;53703;50.326;19.122;2023-07-24T08:41:17;7.90;;;4.40;;
66800;SDS011;53703;50.326;19.122;2023-07-24T08:43:51;8.00;;;4.40;;
66800;SDS011;53703;50.326;19.122;2023-07-24T08:46:24;9.80;;;4.90;;
66800;SDS011;53703;50.326;19.122;2023-07-24T08:48:59;10.70;;;5.20;;
66800;SDS011;53703;50.326;19.122;2023-07-24T08:51:32;10.60;;;4.50;;
66800;SDS011;53703;50.326;19.122;2023-07-24T08:54:06;10.80;;;4.60;;
66800;SDS011;53703;50.326;19.122;2023-07-24T08:56:40;18.30;;;5.20;;
66800;SDS011;53703;50.326;19.122;2023-07-24T08:59:17;11.90;;;5.30;;
66800;SDS011;53703;50.326;19.122;2023-07-24T09:01:51;12.00;;;4.70;;
66800;SDS011;53703;50.326;19.122;2023-07-24T09:04:25;10.40;;;4.70;;
66800;SDS011;53703;50.326;19.122;2023-07-24T09:06:59;9.60;;;5.10;;
66800;SDS011;53703;50.326;19.122;2023-07-24T09:09:32;9.60;;;4.60;;
66800;SDS011;53703;50.326;19.122;2023-07-24T09:12:06;11.40;;;4.70;;
66800;SDS011;53703;50.326;19.122;2023-07-24T09:14:46;9.30;;;4.90;;
66800;SDS011;53703;50.326;19.122;2023-07-24T09:17:20;8.90;;;4.70;;
66800;SDS011;53703;50.326;19.122;2023-07-24T09:19:57;11.40;;;4.30;;
66800;SDS011;53703;50.326;19.122;2023-07-24T09:22:32;7.60;;;4.30;;
66800;SDS011;53703;50.326;19.122;2023-07-24T09:25:14;9.70;;;4.50;;
66800;SDS011;53703;50.326;19.122;2023-07-24T09:27:47;8.10;;;4.20;;
66800;SDS011;53703;50.326;19.122;2023-07-24T09:30:21;9.00;;;4.70;;
66800;SDS011;53703;50.326;19.122;2023-07-24T09:32:55;9.10;;;3.90;;
66800;SDS011;53703;50.326;19.122;2023-07-24T09:35:28;9.80;;;4.70;;
66800;SDS011;53703;50.326;19.122;2023-07-24T09:38:06;9.60;;;4.60;;
66800;SDS011;53703;50.326;19.122;2023-07-24T09:40:45;8.40;;;4.30;;
66800;SDS011;53703;50.326;19.122;2023-07-24T09:43:21;10.10;;;4.20;;
66800;SDS011;53703;50.326;19.122;2023-07-24T09:46:10;9.90;;;4.30;;
66800;SDS011;53703;50.326;19.122;2023-07-24T09:48:44;9.50;;;4.60;;
66800;SDS011;53703;50.326;19.122;2023-07-24T09:51:37;8.40;;;4.50;;
66800;SDS011;53703;50.326;19.122;2023-07-24T09:54:15;10.60;;;4.50;;
66800;SDS011;53703;50.326;19.122;2023-07-24T09:56:54;9.60;;;4.50;;
66800;SDS011;53703;50.326;19.122;2023-07-24T09:59:44;9.50;;;4.80;;
66800;SDS011;53703;50.326;19.122;2023-07-24T10:02:18;10.20;;;4.80;;
66800;SDS011;53703;50.326;19.122;2023-07-24T10:04:52;10.10;;;4.60;;
66800;SDS011;53703;50.326;19.122;2023-07-24T10:07:26;10.40;;;4.80;;
66800;SDS011;53703;50.326;19.122;2023-07-24T10:10:01;9.70;;;5.10;;
66800;SDS011;53703;50.326;19.122;2023-07-24T10:12:35;11.60;;;5.10;;
66800;SDS011;53703;50.326;19.122;2023-07-24T10:15:10;11.80;;;5.00;;
66800;SDS011;53703;50.326;19.122;2023-07-24T10:17:44;12.90;;;5.00;;
66800;SDS011;53703;50.326;19.122;2023-07-24T10:20:18;8.60;;;4.40;;
66800;SDS011;53703;50.326;19.122;2023-07-24T10:22:51;9.10;;;4.60;;
66800;SDS011;53703;50.326;19.122;2023-07-24T10:25:31;12.80;;;4.70;;
66800;SDS011;53703;50.326;19.122;2023-07-24T10:28:06;9.30;;;5.00;;
66800;SDS011;53703;50.326;19.122;2023-07-24T10:30:42;9.20;;;4.90;;
66800;SDS011;53703;50.326;19.122;2023-07-24T10:33:19;10.30;;;5.20;;
66800;SDS011;53703;50.326;19.122;2023-07-24T10:35:54;11.70;;;5.10;;
66800;SDS011;53703;50.326;19.122;2023-07-24T10:38:40;12.40;;;5.30;;
66800;SDS011;53703;50.326;19.122;2023-07-24T10:41:14;11.40;;;5.10;;
66800;SDS011;53703;50.326;19.122;2023-07-24T10:43:48;11.80;;;5.40;;
66800;SDS011;53703;50.326;19.122;2023-07-24T10:46:23;12.60;;;5.00;;
66800;SDS011;53703;50.326;19.122;2023-07-24T10:49:07;8.90;;;4.90;;
66800;SDS011;53703;50.326;19.122;2023-07-24T10:51:41;12.70;;;5.10;;
66800;SDS011;53703;50.326;19.122;2023-07-24T10:54:20;11.80;;;5.30;;
66800;SDS011;53703;50.326;19.122;2023-07-24T10:59:39;11.00;;;5.20;;
66800;SDS011;53703;50.326;19.122;2023-07-24T11:02:12;10.80;;;5.10;;
66800;SDS011;53703;50.326;19.122;2023-07-24T11:04:45;10.10;;;4.90;;
66800;SDS011;53703;50.326;19.122;2023-07-24T11:07:19;10.50;;;5.10;;
66800;SDS011;53703;50.326;19.122;2023-07-24T11:09:53;15.30;;;5.80;;
66800;SDS011;53703;50.326;19.122;2023-07-24T11:12:26;10.40;;;5.20;;
66800;SDS011;53703;50.326;19.122;2023-07-24T11:15:02;9.10;;;4.70;;
66800;SDS011;53703;50.326;19.122;2023-07-24T11:17:37;11.70;;;5.80;;
66800;SDS011;53703;50.326;19.122;2023-07-24T11:20:13;11.00;;;4.80;;
66800;SDS011;53703;50.326;19.122;2023-07-24T11:22:47;12.90;;;5.00;;
66800;SDS011;53703;50.326;19.122;2023-07-24T11:25:20;12.20;;;5.10;;
66800;SDS011;53703;50.326;19.122;2023-07-24T11:27:53;9.70;;;5.00;;
66800;SDS011;53703;50.326;19.122;2023-07-24T11:30:28;15.60;;;5.00;;
66800;SDS011;53703;50.326;19.122;2023-07-24T11:33:04;11.30;;;5.00;;
66800;SDS011;53703;50.326;19.122;2023-07-24T11:35:39;11.10;;;5.00;;
66800;SDS011;53703;50.326;19.122;2023-07-24T11:38:13;9.90;;;4.50;;
66800;SDS011;53703;50.326;19.122;2023-07-24T11:40:48;11.80;;;4.80;;
66800;SDS011;53703;50.326;19.122;2023-07-24T11:43:25;11.90;;;5.20;;
66800;SDS011;53703;50.326;19.122;2023-07-24T11:45:59;12.70;;;5.30;;
66800;SDS011;53703;50.326;19.122;2023-07-24T11:48:32;11.30;;;5.20;;
66800;SDS011;53703;50.326;19.122;2023-07-24T11:51:14;11.40;;;4.80;;
66800;SDS011;53703;50.326;19.122;2023-07-24T11:53:47;12.30;;;5.60;;
66800;SDS011;53703;50.326;19.122;2023-07-24T11:56:20;9.70;;;5.00;;
66800;SDS011;53703;50.326;19.122;2023-07-24T11:58:54;13.40;;;4.90;;
66800;SDS011;53703;50.326;19.122;2023-07-24T12:01:27;16.30;;;5.60;;
66800;SDS011;53703;50.326;19.122;2023-07-24T12:04:02;9.20;;;5.00;;
66800;SDS011;53703;50.326;19.122;2023-07-24T12:06:35;13.70;;;6.00;;
66800;SDS011;53703;50.326;19.122;2023-07-24T12:09:11;12.30;;;5.10;;
66800;SDS011;53703;50.326;19.122;2023-07-24T12:11:45;12.30;;;5.10;;
66800;SDS011;53703;50.326;19.122;2023-07-24T12:14:19;14.60;;;5.80;;
66800;SDS011;53703;50.326;19.122;2023-07-24T12:17:00;11.70;;;5.10;;
66800;SDS011;53703;50.326;19.122;2023-07-24T12:19:40;13.80;;;6.00;;
66800;SDS011;53703;50.326;19.122;2023-07-24T12:22:13;13.40;;;5.50;;
66800;SDS011;53703;50.326;19.122;2023-07-24T12:24:46;13.50;;;5.40;;
66800;SDS011;53703;50.326;19.122;2023-07-24T12:27:20;9.60;;;4.80;;
66800;SDS011;53703;50.326;19.122;2023-07-24T12:29:53;11.30;;;5.00;;
66800;SDS011;53703;50.326;19.122;2023-07-24T12:32:27;11.60;;;5.10;;
66800;SDS011;53703;50.326;19.122;2023-07-24T12:35:00;11.60;;;5.70;;
66800;SDS011;53703;50.326;19.122;2023-07-24T12:37:33;10.80;;;5.10;;
66800;SDS011;53703;50.326;19.122;2023-07-24T12:40:09;9.90;;;5.00;;
66800;SDS011;53703;50.326;19.122;2023-07-24T12:42:42;12.80;;;5.40;;
66800;SDS011;53703;50.326;19.122;2023-07-24T12:45:16;10.20;;;5.20;;
66800;SDS011;53703;50.326;19.122;2023-07-24T12:47:50;10.30;;;4.90;;
66800;SDS011;53703;50.326;19.122;2023-07-24T12:50:26;11.50;;;4.90;;
66800;SDS011;53703;50.326;19.122;2023-07-24T12:53:01;12.70;;;5.80;;
66800;SDS011;53703;50.326;19.122;2023-07-24T12:55:42;12.00;;;5.50;;
66800;SDS011;53703;50.326;19.122;2023-07-24T12:58:15;10.80;;;5.40;;
66800;SDS011;53703;50.326;19.122;2023-07-24T13:00:48;12.70;;;5.20;;
66800;SDS011;53703;50.326;19.122;2023-07-24T13:03:22;13.70;;;5.60;;
66800;SDS011;53703;50.326;19.122;2023-07-24T13:05:55;13.20;;;5.30;;
66800;SDS011;53703;50.326;19.122;2023-07-24T13:08:28;11.40;;;5.30;;
66800;SDS011;53703;50.326;19.122;2023-07-24T13:11:02;11.10;;;5.80;;
66800;SDS011;53703;50.326;19.122;2023-07-24T13:13:35;12.80;;;5.90;;
66800;SDS011;53703;50.326;19.122;2023-07-24T13:16:08;10.80;;;5.40;;
66800;SDS011;53703;50.326;19.122;2023-07-24T13:18:42;10.70;;;5.60;;
66800;SDS011;53703;50.326;19.122;2023-07-24T13:21:15;11.20;;;5.40;;
66800;SDS011;53703;50.326;19.122;2023-07-24T13:23:48;15.10;;;5.30;;
66800;SDS011;53703;50.326;19.122;2023-07-24T13:26:22;11.30;;;5.00;;
66800;SDS011;53703;50.326;19.122;2023-07-24T13:28:55;11.30;;;5.20;;
66800;SDS011;53703;50.326;19.122;2023-07-24T13:31:29;11.50;;;5.20;;
66800;SDS011;53703;50.326;19.122;2023-07-24T13:34:03;13.00;;;5.70;;
66800;SDS011;53703;50.326;19.122;2023-07-24T13:36:37;10.20;;;5.60;;
66800;SDS011;53703;50.326;19.122;2023-07-24T13:39:10;13.60;;;6.30;;
66800;SDS011;53703;50.326;19.122;2023-07-24T13:41:43;9.80;;;5.00;;
66800;SDS011;53703;50.326;19.122;2023-07-24T13:44:17;13.90;;;5.90;;
66800;SDS011;53703;50.326;19.122;2023-07-24T13:46:50;13.40;;;5.40;;
66800;SDS011;53703;50.326;19.122;2023-07-24T13:49:26;11.70;;;5.60;;
66800;SDS011;53703;50.326;19.122;2023-07-24T13:51:59;14.30;;;5.90;;
66800;SDS011;53703;50.326;19.122;2023-07-24T13:54:32;13.50;;;5.80;;
66800;SDS011;53703;50.326;19.122;2023-07-24T13:57:06;12.20;;;6.20;;
66800;SDS011;53703;50.326;19.122;2023-07-24T13:59:39;11.90;;;5.90;;
66800;SDS011;53703;50.326;19.122;2023-07-24T14:02:12;10.50;;;5.80;;
66800;SDS011;53703;50.326;19.122;2023-07-24T14:04:46;12.10;;;6.20;;
66800;SDS011;53703;50.326;19.122;2023-07-24T14:07:19;11.50;;;6.00;;
66800;SDS011;53703;50.326;19.122;2023-07-24T14:09:53;12.60;;;6.10;;
66800;SDS011;53703;50.326;19.122;2023-07-24T14:12:26;14.60;;;6.40;;
66800;SDS011;53703;50.326;19.122;2023-07-24T14:14:59;14.20;;;6.50;;
66800;SDS011;53703;50.326;19.122;2023-07-24T14:17:33;12.50;;;6.30;;
66800;SDS011;53703;50.326;19.122;2023-07-24T14:20:08;11.70;;;5.90;;
66800;SDS011;53703;50.326;19.122;2023-07-24T14:22:43;12.00;;;6.40;;
66800;SDS011;53703;50.326;19.122;2023-07-24T14:25:16;9.80;;;5.50;;
66800;SDS011;53703;50.326;19.122;2023-07-24T14:27:49;12.80;;;6.20;;
66800;SDS011;53703;50.326;19.122;2023-07-24T14:30:23;11.80;;;6.20;;
66800;SDS011;53703;50.326;19.122;2023-07-24T14:32:56;12.10;;;6.00;;
66800;SDS011;53703;50.326;19.122;2023-07-24T14:35:29;12.00;;;5.80;;
66800;SDS011;53703;50.326;19.122;2023-07-24T14:38:03;11.80;;;6.00;;
66800;SDS011;53703;50.326;19.122;2023-07-24T14:40:36;14.60;;;6.10;;
66800;SDS011;53703;50.326;19.122;2023-07-24T14:43:10;12.20;;;6.00;;
66800;SDS011;53703;50.326;19.122;2023-07-24T14:45:43;12.30;;;6.30;;
66800;SDS011;53703;50.326;19.122;2023-07-24T14:48:16;13.80;;;6.50;;
66800;SDS011;53703;50.326;19.122;2023-07-24T14:50:49;10.90;;;5.90;;
66800;SDS011;53703;50.326;19.122;2023-07-24T14:53:23;12.40;;;6.10;;
66800;SDS011;53703;50.326;19.122;2023-07-24T14:55:57;12.30;;;6.40;;
66800;SDS011;53703;50.326;19.122;2023-07-24T14:58:30;11.20;;;6.00;;
66800;SDS011;53703;50.326;19.122;2023-07-24T15:01:04;11.80;;;6.10;;
66800;SDS011;53703;50.326;19.122;2023-07-24T15:03:38;14.70;;;6.80;;
66800;SDS011;53703;50.326;19.122;2023-07-24T15:06:11;12.40;;;6.00;;
66800;SDS011;53703;50.326;19.122;2023-07-24T15:08:44;13.50;;;6.30;;
66800;SDS011;53703;50.326;19.122;2023-07-24T15:11:18;12.30;;;6.30;;
66800;SDS011;53703;50.326;19.122;2023-07-24T15:13:53;14.80;;;6.30;;
66800;SDS011;53703;50.326;19.122;2023-07-24T15:16:26;12.90;;;6.50;;